createdAt,value
2023-04-22T00:01:17.405Z,51152.00
2023-04-22T00:03:44.992Z,51179.84
2023-04-22T00:06:12.962Z,51165.91
2023-04-22T00:08:40.125Z,51177.84
2023-04-22T00:11:07.266Z,51159.97
2023-04-22T00:13:34.457Z,51173.88
2023-04-22T00:16:01.525Z,51154.00
2023-04-22T00:18:28.602Z,51185.81
2023-04-22T00:20:55.936Z,51146.03
2023-04-22T00:23:23.043Z,51140.09
2023-04-22T00:25:50.164Z,51152.00
2023-04-22T00:28:17.289Z,51167.91
2023-04-22T00:30:44.525Z,51157.97
2023-04-22T00:33:11.891Z,51157.97
2023-04-22T00:35:38.956Z,51169.91
2023-04-22T00:38:06.132Z,51134.13
2023-04-22T00:40:33.263Z,51171.88
2023-04-22T00:43:01.429Z,51173.88
2023-04-22T00:45:30.779Z,51179.84
2023-04-22T00:47:58.200Z,51167.91
2023-04-22T00:50:25.638Z,51167.91
2023-04-22T00:52:52.951Z,51165.91
2023-04-22T00:55:20.308Z,51157.97
2023-04-22T00:57:49.892Z,51161.94
2023-04-22T01:00:20.057Z,51144.06
2023-04-22T01:02:48.184Z,51169.91
2023-04-22T01:05:15.430Z,51167.91
2023-04-22T01:07:42.670Z,51155.97
2023-04-22T01:10:10.338Z,51154.00
2023-04-22T01:12:37.438Z,51154.00
2023-04-22T01:15:05.993Z,51157.97
2023-04-22T01:17:33.874Z,51171.88
2023-04-22T01:20:04.011Z,51152.00
2023-04-22T01:22:41.287Z,51154.00
2023-04-22T01:25:11.330Z,51161.94
2023-04-22T01:27:40.572Z,51157.97
2023-04-22T01:30:09.312Z,51150.03
2023-04-22T01:32:37.253Z,51146.03
2023-04-22T01:35:05.387Z,51134.13
2023-04-22T01:37:32.516Z,51157.97
2023-04-22T01:39:59.761Z,51197.72
2023-04-22T01:42:27.173Z,51155.97
2023-04-22T01:44:54.578Z,51142.06
2023-04-22T01:47:21.857Z,51171.88
2023-04-22T01:49:49.085Z,51159.97
2023-04-22T01:52:17.687Z,51157.97
2023-04-22T01:54:44.770Z,51165.91
2023-04-22T01:57:14.265Z,51157.97
2023-04-22T01:59:41.963Z,51159.97
2023-04-22T02:02:09.498Z,51152.00
2023-04-22T02:04:36.715Z,51146.03
2023-04-22T02:07:04.158Z,51142.06
2023-04-22T02:09:34.438Z,51159.97
2023-04-22T02:12:02.054Z,51142.06
2023-04-22T02:14:29.128Z,51159.97
2023-04-22T02:16:56.330Z,51140.09
2023-04-22T02:19:23.564Z,51150.03
2023-04-22T02:21:50.898Z,51128.16
2023-04-22T02:24:18.050Z,51150.03
2023-04-22T02:26:46.080Z,51146.03
2023-04-22T02:29:13.935Z,51159.97
2023-04-22T02:31:41.078Z,51148.03
2023-04-22T02:34:08.480Z,51130.13
2023-04-22T02:36:35.706Z,51132.13
2023-04-22T02:39:06.170Z,51144.06
2023-04-22T02:41:35.666Z,51132.13
2023-04-22T02:44:03.051Z,51138.09
2023-04-22T02:46:30.282Z,51142.06
2023-04-22T02:48:57.604Z,51157.97
2023-04-22T02:51:24.704Z,51138.09
2023-04-22T02:53:52.093Z,51132.13
2023-04-22T02:56:20.689Z,51136.09
2023-04-22T02:58:47.792Z,51152.00
2023-04-22T03:01:14.977Z,51171.88
2023-04-22T03:03:42.464Z,51118.22
2023-04-22T03:06:13.210Z,51134.13
2023-04-22T03:08:40.439Z,51122.19
2023-04-22T03:11:07.619Z,51112.25
2023-04-22T03:13:34.792Z,51148.03
2023-04-22T03:16:02.043Z,51138.09
2023-04-22T03:18:29.685Z,51130.13
2023-04-22T03:20:56.941Z,51134.13
2023-04-22T03:23:24.133Z,51126.16
2023-04-22T03:25:51.968Z,51142.06
2023-04-22T03:28:19.731Z,51110.25
2023-04-22T03:30:47.484Z,51130.13
2023-04-22T03:33:15.179Z,51148.03
2023-04-22T03:35:51.421Z,51152.00
2023-04-22T03:38:18.562Z,51118.22
2023-04-22T03:40:46.010Z,51116.22
2023-04-22T03:43:24.753Z,51142.06
2023-04-22T03:46:00.437Z,51118.22
2023-04-22T03:48:33.455Z,51118.22
2023-04-22T03:51:03.518Z,51146.03
2023-04-22T03:53:35.835Z,51144.06
2023-04-22T03:56:03.068Z,51159.97
2023-04-22T03:58:33.083Z,51146.03
2023-04-22T04:01:02.473Z,51124.19
2023-04-22T04:03:31.186Z,51155.97
2023-04-22T04:05:59.037Z,51130.13
2023-04-22T04:08:26.857Z,51112.25
2023-04-22T04:10:54.034Z,51130.13
2023-04-22T04:13:21.101Z,51138.09
2023-04-22T04:16:07.134Z,51124.19
2023-04-22T04:18:38.971Z,51126.16
2023-04-22T04:21:06.637Z,51150.03
2023-04-22T04:23:38.135Z,51140.09
2023-04-22T04:26:05.729Z,51159.97
2023-04-22T04:28:36.169Z,51142.06
2023-04-22T04:31:03.548Z,51144.06
2023-04-22T04:33:34.293Z,51154.00
2023-04-22T04:36:01.700Z,51165.91
2023-04-22T04:38:34.215Z,51157.97
2023-04-22T04:41:01.712Z,51138.09
2023-04-22T04:43:29.687Z,51150.03
2023-04-22T04:46:20.926Z,51144.06
2023-04-22T04:48:50.725Z,51173.88
2023-04-22T04:51:20.377Z,51177.84
2023-04-22T04:53:55.635Z,51159.97
2023-04-22T04:56:24.417Z,51191.78
2023-04-22T04:58:52.184Z,51167.91
2023-04-22T05:01:24.153Z,51161.94
2023-04-22T05:03:52.595Z,51165.91
2023-04-22T05:06:21.235Z,51169.91
2023-04-22T05:08:57.722Z,51155.97
2023-04-22T05:11:25.053Z,51154.00
2023-04-22T05:13:53.343Z,51177.84
2023-04-22T05:16:34.121Z,51171.88
2023-04-22T05:19:01.585Z,51167.91
2023-04-22T05:21:28.700Z,51195.75
2023-04-22T05:23:56.361Z,51173.88
2023-04-22T05:26:24.366Z,51183.81
2023-04-22T05:28:51.638Z,51189.78
2023-04-22T05:31:19.801Z,51173.88
2023-04-22T05:33:47.725Z,51189.78
2023-04-22T05:36:14.877Z,51201.72
2023-04-22T05:38:43.441Z,51201.72
2023-04-22T05:41:10.575Z,51177.84
2023-04-22T05:43:37.777Z,51171.88
2023-04-22T05:46:10.206Z,51217.59
2023-04-22T05:48:39.724Z,51195.75
2023-04-22T05:51:10.489Z,51199.72
2023-04-22T05:53:38.194Z,51225.56
2023-04-22T05:56:06.018Z,51213.63
2023-04-22T05:58:33.924Z,51189.78
2023-04-22T06:01:09.408Z,51193.75
2023-04-22T06:03:55.265Z,51205.69
2023-04-22T06:06:24.285Z,51213.63
2023-04-22T06:08:51.519Z,51231.53
2023-04-22T06:11:18.821Z,51213.63
2023-04-22T06:13:45.937Z,51201.72
2023-04-22T06:16:13.054Z,51217.59
2023-04-22T06:18:40.414Z,51237.50
2023-04-22T06:21:11.857Z,51227.56
2023-04-22T06:23:40.034Z,51251.41
2023-04-22T06:26:07.289Z,51239.47
2023-04-22T06:28:36.436Z,51229.53
2023-04-22T06:31:08.640Z,51259.34
2023-04-22T06:33:36.631Z,51233.50
2023-04-22T06:36:05.138Z,51235.50
2023-04-22T06:38:33.269Z,51251.41
2023-04-22T06:41:22.655Z,51227.56
2023-04-22T06:43:51.645Z,51263.34
2023-04-22T06:46:18.802Z,51255.38
2023-04-22T06:49:09.114Z,51263.34
2023-04-22T06:51:54.625Z,51255.38
2023-04-22T06:54:22.321Z,51277.25
2023-04-22T06:56:50.630Z,51277.25
2023-04-22T06:59:17.848Z,51265.31
2023-04-22T07:01:47.121Z,51269.31
2023-04-22T07:04:14.430Z,51271.28
2023-04-22T07:06:43.325Z,51285.19
2023-04-22T07:09:10.691Z,51289.19
2023-04-22T07:11:38.685Z,51281.22
2023-04-22T07:14:10.927Z,51277.25
2023-04-22T07:16:39.006Z,51295.16
2023-04-22T07:19:06.373Z,51287.19
2023-04-22T07:21:33.963Z,51289.19
2023-04-22T07:24:01.042Z,51285.19
2023-04-22T07:26:28.297Z,51305.09
2023-04-22T07:28:55.422Z,51313.03
2023-04-22T07:31:22.606Z,51315.03
2023-04-22T07:33:49.772Z,51303.09
2023-04-22T07:36:17.221Z,51319.00
2023-04-22T07:38:44.322Z,51334.91
2023-04-22T07:41:11.431Z,51315.03
2023-04-22T07:43:38.493Z,51336.91
2023-04-22T07:46:05.683Z,51319.00
2023-04-22T07:48:32.834Z,51319.00
2023-04-22T07:50:59.893Z,51311.06
2023-04-22T07:53:26.959Z,51334.91
2023-04-22T07:55:55.880Z,51317.00
2023-04-22T07:58:23.014Z,51307.06
2023-04-22T08:00:50.155Z,51342.84
2023-04-22T08:03:17.455Z,51336.91
2023-04-22T08:05:44.976Z,51319.00
2023-04-22T08:08:12.100Z,51324.97
2023-04-22T08:10:39.215Z,51334.91
2023-04-22T08:13:06.400Z,51356.78
2023-04-22T08:15:33.564Z,51372.69
2023-04-22T08:18:00.725Z,51360.75
2023-04-22T08:20:27.938Z,51352.78
2023-04-22T08:23:00.263Z,51388.59
2023-04-22T08:25:28.151Z,51396.53
2023-04-22T08:27:55.565Z,51374.66
2023-04-22T08:30:22.742Z,51392.56
2023-04-22T08:32:49.927Z,51368.69
2023-04-22T08:35:17.231Z,51380.63
2023-04-22T08:37:44.335Z,51392.56
2023-04-22T08:40:11.679Z,51392.56
2023-04-22T08:42:38.836Z,51400.50
2023-04-22T08:45:06.670Z,51374.66
2023-04-22T08:47:35.206Z,51404.50
2023-04-22T08:50:04.383Z,51386.59
2023-04-22T08:52:32.205Z,51390.56
2023-04-22T08:54:59.887Z,51370.69
2023-04-22T08:57:27.488Z,51412.44
2023-04-22T08:59:56.560Z,51390.56
2023-04-22T09:02:24.992Z,51408.47
2023-04-22T09:04:56.459Z,51402.50
2023-04-22T09:07:28.809Z,51394.53
2023-04-22T09:09:56.938Z,51392.56
2023-04-22T09:12:27.692Z,51396.53
2023-04-22T09:14:56.208Z,51404.50
2023-04-22T09:17:35.193Z,51392.56
2023-04-22T09:20:04.891Z,51428.34
2023-04-22T09:22:42.599Z,51392.56
2023-04-22T09:25:22.058Z,51420.41
2023-04-22T09:27:58.267Z,51408.47
2023-04-22T09:30:36.557Z,51422.38
2023-04-22T09:33:06.864Z,51416.41
2023-04-22T09:35:40.059Z,51442.25
2023-04-22T09:38:11.799Z,51428.34
2023-04-22T09:40:43.687Z,51408.47
2023-04-22T09:43:11.744Z,51442.25
2023-04-22T09:45:43.227Z,51458.16
2023-04-22T09:48:19.126Z,51414.44
2023-04-22T09:50:49.534Z,51428.34
2023-04-22T09:53:19.446Z,51434.31
2023-04-22T09:55:54.419Z,51489.97
2023-04-22T09:58:27.669Z,51456.19
2023-04-22T10:00:58.092Z,51474.06
2023-04-22T10:03:25.359Z,51462.16
2023-04-22T10:05:52.712Z,51436.28
2023-04-22T10:08:19.865Z,51444.25
2023-04-22T10:10:47.071Z,51444.25
2023-04-22T10:13:14.305Z,51450.22
2023-04-22T10:15:55.869Z,51432.31
2023-04-22T10:18:28.371Z,51454.19
2023-04-22T10:20:58.122Z,51456.19
2023-04-22T10:23:25.777Z,51458.16
2023-04-22T10:25:57.225Z,51454.19
2023-04-22T10:28:28.497Z,51430.34
2023-04-22T10:30:55.745Z,51478.03
2023-04-22T10:33:28.493Z,51482.03
2023-04-22T10:36:17.767Z,51436.28
2023-04-22T10:38:50.812Z,51448.22
2023-04-22T10:41:27.291Z,51440.28
2023-04-22T10:44:01.001Z,51486.00
2023-04-22T10:46:40.397Z,51460.16
2023-04-22T10:49:18.169Z,51470.09
2023-04-22T10:51:59.536Z,51480.03
2023-04-22T10:54:31.903Z,51486.00
2023-04-22T10:57:15.461Z,51474.06
2023-04-22T10:59:47.942Z,51448.22
2023-04-22T11:02:17.688Z,51488.00
2023-04-22T11:04:45.101Z,51472.09
2023-04-22T11:07:27.327Z,51456.19
2023-04-22T11:10:07.086Z,51484.00
2023-04-22T11:12:38.510Z,51478.03
2023-04-22T11:15:26.301Z,51505.88
2023-04-22T11:17:55.371Z,51497.94
2023-04-22T11:20:22.668Z,51489.97
2023-04-22T11:22:54.106Z,51513.84
2023-04-22T11:25:22.214Z,51511.84
2023-04-22T11:27:49.594Z,51491.97
2023-04-22T11:30:23.078Z,51491.97
2023-04-22T11:32:57.329Z,51489.97
2023-04-22T11:35:31.378Z,51529.75
2023-04-22T11:38:06.161Z,51567.50
2023-04-22T11:40:42.117Z,51557.56
2023-04-22T11:43:11.826Z,51621.19
2023-04-22T11:45:39.899Z,51734.53
2023-04-22T11:48:11.174Z,51796.16
2023-04-22T11:50:41.351Z,51881.66
2023-04-22T11:53:19.485Z,51981.09
2023-04-22T11:55:53.215Z,51997.00
2023-04-22T11:58:27.321Z,52100.41
2023-04-22T12:00:58.178Z,52181.94
2023-04-22T12:03:28.323Z,52317.16
2023-04-22T12:06:01.989Z,52346.97
2023-04-22T12:08:42.438Z,52394.72
2023-04-22T12:11:11.889Z,52559.78
2023-04-22T12:13:38.976Z,52541.88
2023-04-22T12:16:14.753Z,52669.16
2023-04-22T12:18:49.191Z,52665.19
2023-04-22T12:21:24.709Z,52740.75
2023-04-22T12:24:05.003Z,52514.03
2023-04-22T12:26:32.418Z,52557.78
2023-04-22T12:29:00.892Z,52788.50
2023-04-22T12:31:28.591Z,53019.22
2023-04-22T12:33:56.404Z,53070.94
2023-04-22T12:36:24.215Z,53019.22
2023-04-22T12:38:51.525Z,52907.81
2023-04-22T12:41:18.866Z,52951.59
2023-04-22T12:43:47.757Z,53019.22
2023-04-22T12:46:15.074Z,52889.94
2023-04-22T12:48:42.864Z,52989.38
2023-04-22T12:51:10.126Z,53096.78
2023-04-22T12:53:37.272Z,52925.72
2023-04-22T12:56:04.611Z,53017.22
2023-04-22T12:58:31.798Z,53102.75
2023-04-22T13:00:58.903Z,53240.00
2023-04-22T13:03:26.213Z,53092.81
2023-04-22T13:05:53.438Z,52999.31
2023-04-22T13:08:21.234Z,53041.09
2023-04-22T13:10:49.190Z,53285.75
2023-04-22T13:13:18.868Z,53373.28
2023-04-22T13:15:54.101Z,53341.44
2023-04-22T13:18:23.287Z,53321.56
2023-04-22T13:20:51.342Z,53216.13
2023-04-22T13:23:21.625Z,53166.41
2023-04-22T13:25:50.119Z,52866.06
2023-04-22T13:28:17.188Z,53041.09
2023-04-22T13:30:44.372Z,53361.34
2023-04-22T13:33:11.539Z,53385.22
2023-04-22T13:35:38.655Z,53367.31
2023-04-22T13:38:07.247Z,53403.13
2023-04-22T13:40:34.731Z,53251.94
2023-04-22T13:43:01.843Z,53359.34
2023-04-22T13:45:29.058Z,53245.97
2023-04-22T13:47:56.383Z,53413.06
2023-04-22T13:50:24.223Z,53365.31
2023-04-22T13:52:51.467Z,53188.28
2023-04-22T13:55:18.736Z,53220.09
2023-04-22T13:57:46.068Z,53311.63
2023-04-22T14:00:13.933Z,53470.75
2023-04-22T14:02:41.286Z,53478.72
2023-04-22T14:05:10.589Z,53510.53
2023-04-22T14:07:38.189Z,53273.81
2023-04-22T14:10:08.407Z,53434.94
2023-04-22T14:12:35.695Z,53389.19
2023-04-22T14:15:02.774Z,53357.38
2023-04-22T14:17:30.016Z,53212.16
2023-04-22T14:19:57.282Z,53289.72
2023-04-22T14:22:24.409Z,53440.91
2023-04-22T14:24:51.471Z,53430.97
2023-04-22T14:27:18.539Z,53403.13
2023-04-22T14:29:46.235Z,53331.50
2023-04-22T14:32:14.157Z,53301.66
2023-04-22T14:34:41.233Z,53261.88
2023-04-22T14:37:08.349Z,53263.88
2023-04-22T14:39:35.980Z,53309.63
2023-04-22T14:42:04.438Z,53436.94
2023-04-22T14:44:31.682Z,53508.56
2023-04-22T14:46:58.843Z,53552.31
2023-04-22T14:49:25.951Z,53612.00
2023-04-22T14:51:53.098Z,53468.75
2023-04-22T14:54:20.191Z,53375.28
2023-04-22T14:56:48.124Z,53434.94
2023-04-22T14:59:15.428Z,53492.63
2023-04-22T15:01:43.186Z,53397.16
2023-04-22T15:04:13.614Z,53259.91
2023-04-22T15:06:41.439Z,53066.94
2023-04-22T15:09:08.665Z,53003.28
2023-04-22T15:11:35.787Z,53027.16
2023-04-22T15:14:03.225Z,53066.94
2023-04-22T15:16:30.509Z,53132.59
2023-04-22T15:18:57.918Z,53204.19
2023-04-22T15:21:25.024Z,53160.44
2023-04-22T15:23:52.185Z,53003.28
2023-04-22T15:26:19.400Z,53015.22
2023-04-22T15:28:47.393Z,52967.50
2023-04-22T15:31:14.527Z,53114.69
2023-04-22T15:33:41.710Z,53140.53
2023-04-22T15:36:09.728Z,53188.28
2023-04-22T15:38:38.606Z,53265.88
2023-04-22T15:41:05.811Z,52975.44
2023-04-22T15:43:33.123Z,52766.59
2023-04-22T15:46:01.256Z,52794.44
2023-04-22T15:48:28.451Z,52891.91
2023-04-22T15:50:55.594Z,52987.38
2023-04-22T15:53:22.795Z,53001.31
2023-04-22T15:55:49.956Z,53007.28
2023-04-22T15:58:18.723Z,52917.78
2023-04-22T16:00:46.084Z,52842.19
2023-04-22T16:03:13.370Z,52651.25
2023-04-22T16:05:40.602Z,52653.25
2023-04-22T16:08:07.898Z,52796.44
2023-04-22T16:10:34.994Z,52754.69
2023-04-22T16:13:02.094Z,52864.06
2023-04-22T16:15:29.242Z,52820.31
2023-04-22T16:17:56.955Z,52872.03
2023-04-22T16:20:25.025Z,52919.75
2023-04-22T16:22:52.164Z,52899.88
2023-04-22T16:25:20.088Z,52879.97
2023-04-22T16:27:47.312Z,52649.25
2023-04-22T16:30:16.207Z,52543.84
2023-04-22T16:32:43.508Z,52382.78
2023-04-22T16:35:11.479Z,52289.31
2023-04-22T16:37:38.652Z,52132.22
2023-04-22T16:40:07.960Z,52289.31
2023-04-22T16:42:35.392Z,52331.06
2023-04-22T16:45:02.623Z,52291.28
2023-04-22T16:47:29.928Z,52299.25
2023-04-22T16:49:57.144Z,52352.94
2023-04-22T16:52:24.316Z,52428.50
2023-04-22T16:54:51.747Z,52345.00
2023-04-22T16:57:18.935Z,52217.72
2023-04-22T16:59:46.045Z,52179.94
2023-04-22T17:02:13.396Z,52120.28
2023-04-22T17:04:40.714Z,52070.56
2023-04-22T17:07:08.014Z,51947.28
2023-04-22T17:09:35.211Z,51945.28
2023-04-22T17:12:02.673Z,51865.75
2023-04-22T17:14:29.997Z,51800.16
2023-04-22T17:16:57.131Z,51760.38
2023-04-22T17:19:25.077Z,51724.59
2023-04-22T17:21:52.226Z,51722.59
2023-04-22T17:24:21.078Z,51676.88
2023-04-22T17:26:49.448Z,51613.25
2023-04-22T17:29:16.599Z,51601.31
2023-04-22T17:31:43.856Z,51567.50
2023-04-22T17:34:10.985Z,51547.63
2023-04-22T17:36:38.153Z,51545.66
2023-04-22T17:39:05.359Z,51517.81
2023-04-22T17:41:32.454Z,51470.09
2023-04-22T17:43:59.758Z,51488.00
2023-04-22T17:46:27.025Z,51501.91
2023-04-22T17:48:54.160Z,51452.19
2023-04-22T17:51:21.270Z,51472.09
2023-04-22T17:53:48.555Z,51456.19
2023-04-22T17:56:15.720Z,51436.28
2023-04-22T17:58:42.838Z,51458.16
2023-04-22T18:01:10.197Z,51436.28
2023-04-22T18:03:37.544Z,51398.53
2023-04-22T18:06:05.179Z,51404.50
2023-04-22T18:08:32.422Z,51404.50
2023-04-22T18:10:59.690Z,51386.59
2023-04-22T18:13:26.894Z,51386.59
2023-04-22T18:15:54.040Z,51394.53
2023-04-22T18:18:21.144Z,51388.59
2023-04-22T18:20:48.484Z,51382.63
2023-04-22T18:23:15.814Z,51388.59
2023-04-22T18:25:43.437Z,51388.59
2023-04-22T18:28:10.844Z,51388.59
2023-04-22T18:30:37.906Z,51372.69
2023-04-22T18:33:05.122Z,51366.72
2023-04-22T18:35:33.757Z,51344.84
2023-04-22T18:38:00.903Z,51348.81
2023-04-22T18:40:28.002Z,51348.81
2023-04-22T18:42:55.496Z,51346.84
2023-04-22T18:45:23.122Z,51350.81
2023-04-22T18:47:50.666Z,51340.88
2023-04-22T18:50:17.959Z,51336.91
2023-04-22T18:52:45.098Z,51319.00
2023-04-22T18:55:12.490Z,51336.91
2023-04-22T18:57:39.586Z,51348.81
2023-04-22T19:00:08.327Z,51346.84
2023-04-22T19:02:39.114Z,51332.91
2023-04-22T19:05:08.501Z,51322.97
2023-04-22T19:07:36.027Z,51324.97
2023-04-22T19:10:03.999Z,51332.91
2023-04-22T19:12:31.196Z,51321.00
2023-04-22T19:15:00.289Z,51334.91
2023-04-22T19:17:28.870Z,51330.94
2023-04-22T19:19:56.129Z,51326.94
2023-04-22T19:22:23.385Z,51364.72
2023-04-22T19:24:50.789Z,51328.94
2023-04-22T19:27:19.007Z,51340.88
2023-04-22T19:29:51.298Z,51332.91
2023-04-22T19:32:18.595Z,51313.03
2023-04-22T19:34:47.310Z,51330.94
2023-04-22T19:37:14.506Z,51330.94
2023-04-22T19:39:42.031Z,51305.09
2023-04-22T19:42:09.381Z,51321.00
2023-04-22T19:44:36.602Z,51303.09
2023-04-22T19:47:03.739Z,51324.97
2023-04-22T19:49:31.910Z,51313.03
2023-04-22T19:52:02.082Z,51317.00
2023-04-22T19:54:30.485Z,51295.16
2023-04-22T19:56:58.631Z,51321.00
2023-04-22T19:59:28.054Z,51330.94
2023-04-22T20:01:55.644Z,51326.94
2023-04-22T20:04:23.346Z,51297.13
2023-04-22T20:06:52.159Z,51303.09
2023-04-22T20:09:19.792Z,51317.00
2023-04-22T20:11:48.019Z,51285.19
2023-04-22T20:14:16.245Z,51295.16
2023-04-22T20:16:44.773Z,51287.19
2023-04-22T20:19:13.953Z,51303.09
2023-04-22T20:21:41.588Z,51281.22
2023-04-22T20:24:18.964Z,51301.09
2023-04-22T20:26:47.997Z,51313.03
2023-04-22T20:29:17.639Z,51287.19
2023-04-22T20:31:45.085Z,51303.09
2023-04-22T20:34:13.187Z,51285.19
2023-04-22T20:36:40.552Z,51297.13
2023-04-22T20:39:09.289Z,51261.34
2023-04-22T20:41:39.344Z,51293.16
2023-04-22T20:44:07.050Z,51263.34
2023-04-22T20:46:35.127Z,51267.31
2023-04-22T20:49:02.299Z,51285.19
2023-04-22T20:51:29.566Z,51303.09
2023-04-22T20:53:57.503Z,51293.16
2023-04-22T20:56:25.467Z,51289.19
2023-04-22T20:58:52.832Z,51267.31
2023-04-22T21:01:20.184Z,51297.13
2023-04-22T21:03:52.457Z,51275.25
2023-04-22T21:06:21.243Z,51291.16
2023-04-22T21:08:49.838Z,51281.22
2023-04-22T21:11:17.436Z,51267.31
2023-04-22T21:13:45.280Z,51257.38
2023-04-22T21:16:14.205Z,51303.09
2023-04-22T21:18:44.677Z,51277.25
2023-04-22T21:21:13.425Z,51259.34
2023-04-22T21:23:42.257Z,51255.38
2023-04-22T21:26:10.891Z,51297.13
2023-04-22T21:28:39.267Z,51269.31
2023-04-22T21:31:07.146Z,51251.41
2023-04-22T21:33:34.368Z,51259.34
2023-04-22T21:36:01.517Z,51281.22
2023-04-22T21:38:29.653Z,51257.38
2023-04-22T21:40:56.644Z,51247.44
2023-04-22T21:43:23.749Z,51261.34
2023-04-22T21:45:50.995Z,51249.41
2023-04-22T21:48:18.085Z,51279.25
2023-04-22T21:50:45.271Z,51271.28
2023-04-22T21:53:12.768Z,51279.25
2023-04-22T21:55:39.912Z,51273.28
2023-04-22T21:58:07.845Z,51301.09
2023-04-22T22:00:34.997Z,51265.31
2023-04-22T22:03:02.286Z,51281.22
2023-04-22T22:05:29.793Z,51257.38
2023-04-22T22:07:57.000Z,51291.16
2023-04-22T22:10:24.909Z,51253.41
2023-04-22T22:12:52.102Z,51273.28
2023-04-22T22:15:19.255Z,51277.25
2023-04-22T22:17:46.600Z,51265.31
2023-04-22T22:20:18.096Z,51259.34
2023-04-22T22:22:45.295Z,51265.31
2023-04-22T22:25:15.256Z,51271.28
2023-04-22T22:27:48.728Z,51251.41
2023-04-22T22:30:18.720Z,51249.41
2023-04-22T22:32:46.511Z,51271.28
2023-04-22T22:35:13.870Z,51267.31
2023-04-22T22:37:41.235Z,51271.28
2023-04-22T22:40:09.108Z,51263.34
2023-04-22T22:42:36.279Z,51257.38
2023-04-22T22:45:05.248Z,51271.28
2023-04-22T22:47:32.749Z,51231.53
2023-04-22T22:50:00.032Z,51255.38
2023-04-22T22:52:27.521Z,51265.31
2023-04-22T22:54:54.639Z,51251.41
2023-04-22T22:57:21.840Z,51271.28
2023-04-22T22:59:48.943Z,51273.28
2023-04-22T23:02:16.261Z,51267.31
2023-04-22T23:04:43.728Z,51279.25
2023-04-22T23:07:10.958Z,51287.19
2023-04-22T23:09:38.096Z,51257.38
2023-04-22T23:12:05.621Z,51257.38
2023-04-22T23:14:33.437Z,51277.25
2023-04-22T23:17:01.466Z,51289.19
2023-04-22T23:19:29.134Z,51263.34
2023-04-22T23:21:56.870Z,51265.31
2023-04-22T23:24:24.361Z,51271.28
2023-04-22T23:26:52.005Z,51265.31
2023-04-22T23:29:19.665Z,51269.31
2023-04-22T23:31:50.430Z,51265.31
2023-04-22T23:34:19.661Z,51253.41
2023-04-22T23:36:48.052Z,51255.38
2023-04-22T23:39:15.220Z,51245.44
2023-04-22T23:41:42.298Z,51269.31
2023-04-22T23:44:09.466Z,51249.41
2023-04-22T23:46:36.578Z,51257.38
2023-04-22T23:49:03.709Z,51271.28
2023-04-22T23:51:31.029Z,51277.25
2023-04-22T23:53:58.372Z,51261.34
2023-04-22T23:56:26.544Z,51255.38
2023-04-22T23:58:54.030Z,51267.31
